sensor_id;sensor_type;location;lat;lon;timestamp;P1;durP1;ratioP1;P2;durP2;ratioP2
64738;SDS011;51175;51.186;0.276;2023-08-12T00:00:06;7.25;;;4.00;;
64738;SDS011;51175;51.186;0.276;2023-08-12T00:00:42;7.07;;;4.05;;
64738;SDS011;51175;51.186;0.276;2023-08-12T00:01:12;7.82;;;3.50;;
64738;SDS011;51175;51.186;0.276;2023-08-12T00:01:42;7.20;;;3.88;;
64738;SDS011;51175;51.186;0.276;2023-08-12T00:02:13;7.00;;;3.22;;
64738;SDS011;51175;51.186;0.276;2023-08-12T00:02:43;7.00;;;3.38;;
64738;SDS011;51175;51.186;0.276;2023-08-12T00:03:14;6.97;;;3.25;;
64738;SDS011;51175;51.186;0.276;2023-08-12T00:03:45;6.80;;;2.90;;
64738;SDS011;51175;51.186;0.276;2023-08-12T00:04:15;7.10;;;3.40;;
64738;SDS011;51175;51.186;0.276;2023-08-12T00:04:46;8.80;;;3.90;;
64738;SDS011;51175;51.186;0.276;2023-08-12T00:05:17;8.93;;;3.15;;
64738;SDS011;51175;51.186;0.276;2023-08-12T00:05:48;8.15;;;3.17;;
64738;SDS011;51175;51.186;0.276;2023-08-12T00:06:18;8.15;;;3.53;;
64738;SDS011;51175;51.186;0.276;2023-08-12T00:06:48;7.95;;;3.22;;
64738;SDS011;51175;51.186;0.276;2023-08-12T00:07:19;6.03;;;3.10;;
64738;SDS011;51175;51.186;0.276;2023-08-12T00:07:49;5.82;;;3.63;;
64738;SDS011;51175;51.186;0.276;2023-08-12T00:08:19;6.88;;;3.53;;
64738;SDS011;51175;51.186;0.276;2023-08-12T00:08:50;5.82;;;3.30;;
64738;SDS011;51175;51.186;0.276;2023-08-12T00:09:20;6.53;;;3.28;;
64738;SDS011;51175;51.186;0.276;2023-08-12T00:09:50;5.97;;;3.35;;
64738;SDS011;51175;51.186;0.276;2023-08-12T00:10:21;6.13;;;2.92;;
64738;SDS011;51175;51.186;0.276;2023-08-12T00:10:51;6.93;;;2.63;;
64738;SDS011;51175;51.186;0.276;2023-08-12T00:11:21;6.63;;;3.50;;
64738;SDS011;51175;51.186;0.276;2023-08-12T00:11:52;5.78;;;3.00;;
64738;SDS011;51175;51.186;0.276;2023-08-12T00:12:22;6.55;;;3.22;;
64738;SDS011;51175;51.186;0.276;2023-08-12T00:12:52;7.90;;;3.83;;
64738;SDS011;51175;51.186;0.276;2023-08-12T00:13:23;7.10;;;3.05;;
64738;SDS011;51175;51.186;0.276;2023-08-12T00:13:53;7.18;;;2.92;;
64738;SDS011;51175;51.186;0.276;2023-08-12T00:14:24;6.28;;;3.13;;
64738;SDS011;51175;51.186;0.276;2023-08-12T00:14:54;6.95;;;3.20;;
64738;SDS011;51175;51.186;0.276;2023-08-12T00:15:25;5.78;;;2.60;;
64738;SDS011;51175;51.186;0.276;2023-08-12T00:15:55;9.27;;;3.53;;
64738;SDS011;51175;51.186;0.276;2023-08-12T00:16:26;6.20;;;2.72;;
64738;SDS011;51175;51.186;0.276;2023-08-12T00:16:57;5.72;;;2.72;;
64738;SDS011;51175;51.186;0.276;2023-08-12T00:17:27;7.95;;;3.92;;
64738;SDS011;51175;51.186;0.276;2023-08-12T00:17:58;5.82;;;2.85;;
64738;SDS011;51175;51.186;0.276;2023-08-12T00:18:28;5.65;;;2.90;;
64738;SDS011;51175;51.186;0.276;2023-08-12T00:18:58;5.97;;;3.13;;
64738;SDS011;51175;51.186;0.276;2023-08-12T00:19:29;5.68;;;2.70;;
64738;SDS011;51175;51.186;0.276;2023-08-12T00:19:59;5.75;;;2.90;;
64738;SDS011;51175;51.186;0.276;2023-08-12T00:20:29;6.38;;;3.50;;
64738;SDS011;51175;51.186;0.276;2023-08-12T00:21:00;5.82;;;2.55;;
64738;SDS011;51175;51.186;0.276;2023-08-12T00:21:30;7.03;;;2.70;;
64738;SDS011;51175;51.186;0.276;2023-08-12T00:22:01;5.50;;;2.70;;
64738;SDS011;51175;51.186;0.276;2023-08-12T00:22:32;5.25;;;2.55;;
64738;SDS011;51175;51.186;0.276;2023-08-12T00:23:02;8.05;;;3.67;;
64738;SDS011;51175;51.186;0.276;2023-08-12T00:23:37;7.80;;;3.42;;
64738;SDS011;51175;51.186;0.276;2023-08-12T00:24:10;4.95;;;2.90;;
64738;SDS011;51175;51.186;0.276;2023-08-12T00:24:40;5.85;;;3.00;;
64738;SDS011;51175;51.186;0.276;2023-08-12T00:25:11;5.80;;;2.20;;
64738;SDS011;51175;51.186;0.276;2023-08-12T00:25:41;7.07;;;2.78;;
64738;SDS011;51175;51.186;0.276;2023-08-12T00:26:11;6.43;;;3.03;;
64738;SDS011;51175;51.186;0.276;2023-08-12T00:26:42;6.57;;;2.75;;
64738;SDS011;51175;51.186;0.276;2023-08-12T00:27:12;5.57;;;2.80;;
64738;SDS011;51175;51.186;0.276;2023-08-12T00:27:42;5.35;;;2.25;;
64738;SDS011;51175;51.186;0.276;2023-08-12T00:28:13;6.20;;;2.88;;
64738;SDS011;51175;51.186;0.276;2023-08-12T00:28:43;7.68;;;2.65;;
64738;SDS011;51175;51.186;0.276;2023-08-12T00:29:13;5.45;;;2.90;;
64738;SDS011;51175;51.186;0.276;2023-08-12T00:29:44;5.53;;;3.00;;
64738;SDS011;51175;51.186;0.276;2023-08-12T00:30:14;3.97;;;2.70;;
64738;SDS011;51175;51.186;0.276;2023-08-12T00:30:47;5.30;;;2.22;;
64738;SDS011;51175;51.186;0.276;2023-08-12T00:31:18;7.07;;;3.30;;
64738;SDS011;51175;51.186;0.276;2023-08-12T00:31:48;5.57;;;2.83;;
64738;SDS011;51175;51.186;0.276;2023-08-12T00:32:19;7.43;;;2.58;;
64738;SDS011;51175;51.186;0.276;2023-08-12T00:32:49;4.57;;;2.55;;
64738;SDS011;51175;51.186;0.276;2023-08-12T00:33:19;6.63;;;2.35;;
64738;SDS011;51175;51.186;0.276;2023-08-12T00:33:50;8.35;;;3.45;;
64738;SDS011;51175;51.186;0.276;2023-08-12T00:34:20;3.72;;;2.90;;
64738;SDS011;51175;51.186;0.276;2023-08-12T00:34:51;6.60;;;2.72;;
64738;SDS011;51175;51.186;0.276;2023-08-12T00:35:21;6.40;;;3.05;;
64738;SDS011;51175;51.186;0.276;2023-08-12T00:35:51;6.10;;;3.70;;
64738;SDS011;51175;51.186;0.276;2023-08-12T00:36:22;7.00;;;3.05;;
64738;SDS011;51175;51.186;0.276;2023-08-12T00:36:52;4.90;;;2.60;;
64738;SDS011;51175;51.186;0.276;2023-08-12T00:37:23;4.78;;;2.00;;
64738;SDS011;51175;51.186;0.276;2023-08-12T00:37:53;5.53;;;3.20;;
64738;SDS011;51175;51.186;0.276;2023-08-12T00:38:24;6.47;;;2.65;;
64738;SDS011;51175;51.186;0.276;2023-08-12T00:38:54;6.28;;;2.95;;
64738;SDS011;51175;51.186;0.276;2023-08-12T00:39:24;5.45;;;2.92;;
64738;SDS011;51175;51.186;0.276;2023-08-12T00:39:55;5.70;;;3.15;;
64738;SDS011;51175;51.186;0.276;2023-08-12T00:40:26;4.97;;;2.38;;
64738;SDS011;51175;51.186;0.276;2023-08-12T00:40:56;4.88;;;2.85;;
64738;SDS011;51175;51.186;0.276;2023-08-12T00:41:28;8.18;;;4.53;;
64738;SDS011;51175;51.186;0.276;2023-08-12T00:41:58;7.70;;;4.10;;
64738;SDS011;51175;51.186;0.276;2023-08-12T00:42:28;6.80;;;2.90;;
64738;SDS011;51175;51.186;0.276;2023-08-12T00:42:59;6.85;;;2.53;;
64738;SDS011;51175;51.186;0.276;2023-08-12T00:43:29;4.85;;;2.83;;
64738;SDS011;51175;51.186;0.276;2023-08-12T00:43:59;5.00;;;2.50;;
64738;SDS011;51175;51.186;0.276;2023-08-12T00:44:30;6.05;;;2.20;;
64738;SDS011;51175;51.186;0.276;2023-08-12T00:45:00;5.60;;;2.58;;
64738;SDS011;51175;51.186;0.276;2023-08-12T00:45:30;5.55;;;2.90;;
64738;SDS011;51175;51.186;0.276;2023-08-12T00:46:01;6.65;;;2.53;;
64738;SDS011;51175;51.186;0.276;2023-08-12T00:46:31;5.35;;;2.80;;
64738;SDS011;51175;51.186;0.276;2023-08-12T00:47:03;5.53;;;3.08;;
64738;SDS011;51175;51.186;0.276;2023-08-12T00:47:33;6.82;;;2.90;;
64738;SDS011;51175;51.186;0.276;2023-08-12T00:48:04;5.63;;;3.35;;
64738;SDS011;51175;51.186;0.276;2023-08-12T00:48:35;7.10;;;2.65;;
64738;SDS011;51175;51.186;0.276;2023-08-12T00:49:05;7.88;;;3.50;;
64738;SDS011;51175;51.186;0.276;2023-08-12T00:49:36;6.00;;;2.17;;
64738;SDS011;51175;51.186;0.276;2023-08-12T00:50:08;4.10;;;2.45;;
64738;SDS011;51175;51.186;0.276;2023-08-12T00:50:42;5.15;;;2.83;;
64738;SDS011;51175;51.186;0.276;2023-08-12T00:51:12;7.85;;;3.58;;
64738;SDS011;51175;51.186;0.276;2023-08-12T00:51:43;7.15;;;2.97;;
64738;SDS011;51175;51.186;0.276;2023-08-12T00:52:15;3.90;;;2.15;;
64738;SDS011;51175;51.186;0.276;2023-08-12T00:52:47;4.93;;;2.47;;
64738;SDS011;51175;51.186;0.276;2023-08-12T00:53:18;5.22;;;2.45;;
64738;SDS011;51175;51.186;0.276;2023-08-12T00:53:49;5.30;;;2.63;;
64738;SDS011;51175;51.186;0.276;2023-08-12T00:54:21;5.97;;;2.25;;
64738;SDS011;51175;51.186;0.276;2023-08-12T00:54:52;5.68;;;2.83;;
64738;SDS011;51175;51.186;0.276;2023-08-12T00:55:23;5.22;;;2.35;;
64738;SDS011;51175;51.186;0.276;2023-08-12T00:55:53;5.28;;;2.58;;
64738;SDS011;51175;51.186;0.276;2023-08-12T00:56:25;5.53;;;2.40;;
64738;SDS011;51175;51.186;0.276;2023-08-12T00:56:56;3.28;;;1.98;;
64738;SDS011;51175;51.186;0.276;2023-08-12T00:57:27;5.20;;;3.17;;
64738;SDS011;51175;51.186;0.276;2023-08-12T00:57:57;4.93;;;2.25;;
64738;SDS011;51175;51.186;0.276;2023-08-12T00:58:28;5.82;;;2.65;;
64738;SDS011;51175;51.186;0.276;2023-08-12T00:58:59;5.38;;;3.67;;
64738;SDS011;51175;51.186;0.276;2023-08-12T00:59:31;6.63;;;2.88;;
64738;SDS011;51175;51.186;0.276;2023-08-12T01:00:04;5.55;;;3.00;;
64738;SDS011;51175;51.186;0.276;2023-08-12T01:00:35;6.38;;;2.63;;
64738;SDS011;51175;51.186;0.276;2023-08-12T01:01:05;5.55;;;2.85;;
64738;SDS011;51175;51.186;0.276;2023-08-12T01:01:38;5.32;;;2.33;;
64738;SDS011;51175;51.186;0.276;2023-08-12T01:02:11;5.43;;;2.70;;
64738;SDS011;51175;51.186;0.276;2023-08-12T01:02:44;4.90;;;2.20;;
64738;SDS011;51175;51.186;0.276;2023-08-12T01:03:18;3.47;;;2.05;;
64738;SDS011;51175;51.186;0.276;2023-08-12T01:03:49;8.45;;;2.70;;
64738;SDS011;51175;51.186;0.276;2023-08-12T01:04:20;5.50;;;2.45;;
64738;SDS011;51175;51.186;0.276;2023-08-12T01:04:50;5.70;;;2.75;;
64738;SDS011;51175;51.186;0.276;2023-08-12T01:05:21;7.32;;;2.67;;
64738;SDS011;51175;51.186;0.276;2023-08-12T01:05:51;3.95;;;1.92;;
64738;SDS011;51175;51.186;0.276;2023-08-12T01:06:21;4.88;;;2.10;;
64738;SDS011;51175;51.186;0.276;2023-08-12T01:06:52;4.53;;;2.00;;
64738;SDS011;51175;51.186;0.276;2023-08-12T01:07:22;5.70;;;3.05;;
64738;SDS011;51175;51.186;0.276;2023-08-12T01:07:53;5.35;;;2.42;;
64738;SDS011;51175;51.186;0.276;2023-08-12T01:08:24;3.47;;;2.05;;
64738;SDS011;51175;51.186;0.276;2023-08-12T01:08:59;5.80;;;2.40;;
64738;SDS011;51175;51.186;0.276;2023-08-12T01:09:30;5.60;;;2.55;;
64738;SDS011;51175;51.186;0.276;2023-08-12T01:10:00;6.38;;;2.58;;
64738;SDS011;51175;51.186;0.276;2023-08-12T01:10:33;5.53;;;2.50;;
64738;SDS011;51175;51.186;0.276;2023-08-12T01:11:15;6.05;;;2.70;;
64738;SDS011;51175;51.186;0.276;2023-08-12T01:12:34;5.15;;;2.50;;
64738;SDS011;51175;51.186;0.276;2023-08-12T01:13:33;3.65;;;2.00;;
64738;SDS011;51175;51.186;0.276;2023-08-12T01:14:13;7.40;;;2.42;;
64738;SDS011;51175;51.186;0.276;2023-08-12T01:14:56;5.50;;;2.50;;
64738;SDS011;51175;51.186;0.276;2023-08-12T01:15:41;5.40;;;2.58;;
64738;SDS011;51175;51.186;0.276;2023-08-12T01:16:13;5.63;;;2.40;;
64738;SDS011;51175;51.186;0.276;2023-08-12T01:16:49;4.95;;;2.40;;
64738;SDS011;51175;51.186;0.276;2023-08-12T01:17:24;5.53;;;1.92;;
64738;SDS011;51175;51.186;0.276;2023-08-12T01:17:56;5.85;;;2.05;;
64738;SDS011;51175;51.186;0.276;2023-08-12T01:18:30;5.70;;;2.17;;
64738;SDS011;51175;51.186;0.276;2023-08-12T01:19:01;6.25;;;2.30;;
64738;SDS011;51175;51.186;0.276;2023-08-12T01:19:38;6.15;;;2.55;;
64738;SDS011;51175;51.186;0.276;2023-08-12T01:20:09;6.60;;;2.15;;
64738;SDS011;51175;51.186;0.276;2023-08-12T01:20:44;3.28;;;1.98;;
64738;SDS011;51175;51.186;0.276;2023-08-12T01:21:17;5.40;;;2.33;;
64738;SDS011;51175;51.186;0.276;2023-08-12T01:21:51;7.43;;;2.30;;
64738;SDS011;51175;51.186;0.276;2023-08-12T01:22:24;6.00;;;2.53;;
64738;SDS011;51175;51.186;0.276;2023-08-12T01:22:59;4.35;;;1.95;;
64738;SDS011;51175;51.186;0.276;2023-08-12T01:23:39;5.95;;;2.17;;
64738;SDS011;51175;51.186;0.276;2023-08-12T01:24:09;6.45;;;2.42;;
64738;SDS011;51175;51.186;0.276;2023-08-12T01:24:40;5.03;;;2.30;;
64738;SDS011;51175;51.186;0.276;2023-08-12T01:25:12;4.30;;;2.17;;
64738;SDS011;51175;51.186;0.276;2023-08-12T01:25:43;6.22;;;2.95;;
64738;SDS011;51175;51.186;0.276;2023-08-12T01:26:13;4.07;;;2.00;;
64738;SDS011;51175;51.186;0.276;2023-08-12T01:26:43;5.97;;;2.65;;
64738;SDS011;51175;51.186;0.276;2023-08-12T01:27:14;7.30;;;2.33;;
64738;SDS011;51175;51.186;0.276;2023-08-12T01:27:44;5.38;;;2.47;;
64738;SDS011;51175;51.186;0.276;2023-08-12T01:28:14;4.40;;;2.17;;
64738;SDS011;51175;51.186;0.276;2023-08-12T01:28:45;5.45;;;1.90;;
64738;SDS011;51175;51.186;0.276;2023-08-12T01:29:16;4.05;;;2.80;;
64738;SDS011;51175;51.186;0.276;2023-08-12T01:29:48;5.05;;;1.92;;
64738;SDS011;51175;51.186;0.276;2023-08-12T01:30:21;5.93;;;1.80;;
64738;SDS011;51175;51.186;0.276;2023-08-12T01:30:57;3.63;;;1.90;;
64738;SDS011;51175;51.186;0.276;2023-08-12T01:31:40;4.10;;;1.95;;
64738;SDS011;51175;51.186;0.276;2023-08-12T01:35:24;6.00;;;2.40;;
64738;SDS011;51175;51.186;0.276;2023-08-12T01:36:02;4.65;;;2.83;;
64738;SDS011;51175;51.186;0.276;2023-08-12T01:36:57;4.47;;;2.10;;
64738;SDS011;51175;51.186;0.276;2023-08-12T01:37:29;4.80;;;2.10;;
64738;SDS011;51175;51.186;0.276;2023-08-12T01:38:02;4.18;;;1.98;;
64738;SDS011;51175;51.186;0.276;2023-08-12T01:38:35;5.45;;;1.90;;
64738;SDS011;51175;51.186;0.276;2023-08-12T01:39:08;5.32;;;2.42;;
64738;SDS011;51175;51.186;0.276;2023-08-12T01:39:41;4.97;;;2.00;;
64738;SDS011;51175;51.186;0.276;2023-08-12T01:40:14;5.03;;;2.13;;
64738;SDS011;51175;51.186;0.276;2023-08-12T01:40:46;5.25;;;2.13;;
64738;SDS011;51175;51.186;0.276;2023-08-12T01:41:19;6.90;;;2.67;;
64738;SDS011;51175;51.186;0.276;2023-08-12T01:41:53;5.68;;;1.90;;
64738;SDS011;51175;51.186;0.276;2023-08-12T01:42:24;5.85;;;3.22;;
64738;SDS011;51175;51.186;0.276;2023-08-12T01:42:55;4.25;;;1.92;;
64738;SDS011;51175;51.186;0.276;2023-08-12T01:43:26;4.95;;;1.88;;
64738;SDS011;51175;51.186;0.276;2023-08-12T01:43:56;6.50;;;1.92;;
64738;SDS011;51175;51.186;0.276;2023-08-12T01:44:27;3.65;;;2.10;;
64738;SDS011;51175;51.186;0.276;2023-08-12T01:44:58;5.95;;;2.40;;
64738;SDS011;51175;51.186;0.276;2023-08-12T01:45:32;2.88;;;1.63;;
64738;SDS011;51175;51.186;0.276;2023-08-12T01:46:03;6.15;;;2.28;;
64738;SDS011;51175;51.186;0.276;2023-08-12T01:46:33;6.75;;;2.17;;
64738;SDS011;51175;51.186;0.276;2023-08-12T01:47:04;5.78;;;2.00;;
64738;SDS011;51175;51.186;0.276;2023-08-12T01:47:34;4.90;;;2.83;;
64738;SDS011;51175;51.186;0.276;2023-08-12T01:48:05;3.63;;;2.10;;
64738;SDS011;51175;51.186;0.276;2023-08-12T01:48:35;5.65;;;1.88;;
64738;SDS011;51175;51.186;0.276;2023-08-12T01:49:06;6.35;;;2.25;;
64738;SDS011;51175;51.186;0.276;2023-08-12T01:49:36;3.08;;;1.45;;
64738;SDS011;51175;51.186;0.276;2023-08-12T01:50:07;5.85;;;2.30;;
64738;SDS011;51175;51.186;0.276;2023-08-12T01:50:37;4.88;;;2.00;;
64738;SDS011;51175;51.186;0.276;2023-08-12T01:51:08;3.95;;;1.92;;
64738;SDS011;51175;51.186;0.276;2023-08-12T01:51:38;5.13;;;2.42;;
64738;SDS011;51175;51.186;0.276;2023-08-12T01:52:08;4.95;;;2.25;;
64738;SDS011;51175;51.186;0.276;2023-08-12T01:52:39;3.75;;;2.10;;
64738;SDS011;51175;51.186;0.276;2023-08-12T01:53:09;5.40;;;1.92;;
64738;SDS011;51175;51.186;0.276;2023-08-12T01:53:39;5.25;;;2.70;;
64738;SDS011;51175;51.186;0.276;2023-08-12T01:54:10;5.15;;;2.22;;
64738;SDS011;51175;51.186;0.276;2023-08-12T01:54:40;3.85;;;1.48;;
64738;SDS011;51175;51.186;0.276;2023-08-12T01:55:10;6.15;;;2.47;;
64738;SDS011;51175;51.186;0.276;2023-08-12T01:55:44;3.58;;;2.40;;
64738;SDS011;51175;51.186;0.276;2023-08-12T01:56:15;4.70;;;2.28;;
64738;SDS011;51175;51.186;0.276;2023-08-12T01:56:45;5.43;;;2.78;;
64738;SDS011;51175;51.186;0.276;2023-08-12T01:57:16;4.90;;;2.25;;
64738;SDS011;51175;51.186;0.276;2023-08-12T01:57:46;2.70;;;1.83;;
64738;SDS011;51175;51.186;0.276;2023-08-12T01:58:16;3.38;;;1.90;;
64738;SDS011;51175;51.186;0.276;2023-08-12T01:58:47;4.65;;;2.60;;
64738;SDS011;51175;51.186;0.276;2023-08-12T01:59:17;3.75;;;1.75;;
64738;SDS011;51175;51.186;0.276;2023-08-12T01:59:48;5.05;;;2.15;;
64738;SDS011;51175;51.186;0.276;2023-08-12T02:00:18;4.00;;;2.78;;
64738;SDS011;51175;51.186;0.276;2023-08-12T02:00:48;5.95;;;1.90;;
64738;SDS011;51175;51.186;0.276;2023-08-12T02:01:18;4.82;;;2.33;;
64738;SDS011;51175;51.186;0.276;2023-08-12T02:01:49;5.40;;;2.05;;
64738;SDS011;51175;51.186;0.276;2023-08-12T02:02:19;6.32;;;2.42;;
64738;SDS011;51175;51.186;0.276;2023-08-12T02:02:50;4.30;;;2.20;;
64738;SDS011;51175;51.186;0.276;2023-08-12T02:03:20;4.18;;;1.98;;
64738;SDS011;51175;51.186;0.276;2023-08-12T02:03:50;3.15;;;1.75;;
64738;SDS011;51175;51.186;0.276;2023-08-12T02:04:21;6.00;;;2.42;;
64738;SDS011;51175;51.186;0.276;2023-08-12T02:04:51;5.30;;;2.15;;
64738;SDS011;51175;51.186;0.276;2023-08-12T02:05:21;5.68;;;2.17;;
64738;SDS011;51175;51.186;0.276;2023-08-12T02:05:52;4.13;;;1.90;;
64738;SDS011;51175;51.186;0.276;2023-08-12T02:06:22;3.85;;;2.20;;
64738;SDS011;51175;51.186;0.276;2023-08-12T02:06:53;4.93;;;2.15;;
64738;SDS011;51175;51.186;0.276;2023-08-12T02:07:24;4.60;;;1.77;;
64738;SDS011;51175;51.186;0.276;2023-08-12T02:07:55;4.10;;;2.20;;
64738;SDS011;51175;51.186;0.276;2023-08-12T02:08:25;3.55;;;2.03;;
64738;SDS011;51175;51.186;0.276;2023-08-12T02:08:56;2.75;;;1.58;;
64738;SDS011;51175;51.186;0.276;2023-08-12T02:09:26;4.25;;;1.65;;
64738;SDS011;51175;51.186;0.276;2023-08-12T02:09:56;5.55;;;2.20;;
64738;SDS011;51175;51.186;0.276;2023-08-12T02:10:27;4.45;;;2.17;;
64738;SDS011;51175;51.186;0.276;2023-08-12T02:10:57;5.05;;;1.88;;
64738;SDS011;51175;51.186;0.276;2023-08-12T02:11:27;5.63;;;2.40;;
64738;SDS011;51175;51.186;0.276;2023-08-12T02:11:58;4.85;;;1.92;;
64738;SDS011;51175;51.186;0.276;2023-08-12T02:12:28;3.97;;;1.77;;
64738;SDS011;51175;51.186;0.276;2023-08-12T02:12:58;4.10;;;2.15;;
64738;SDS011;51175;51.186;0.276;2023-08-12T02:13:29;3.80;;;1.88;;
64738;SDS011;51175;51.186;0.276;2023-08-12T02:13:59;3.78;;;1.90;;
64738;SDS011;51175;51.186;0.276;2023-08-12T02:14:30;7.25;;;2.40;;
64738;SDS011;51175;51.186;0.276;2023-08-12T02:15:00;4.35;;;1.90;;
64738;SDS011;51175;51.186;0.276;2023-08-12T02:15:30;5.50;;;2.05;;
64738;SDS011;51175;51.186;0.276;2023-08-12T02:16:01;4.70;;;2.17;;
64738;SDS011;51175;51.186;0.276;2023-08-12T02:16:31;5.75;;;2.13;;
64738;SDS011;51175;51.186;0.276;2023-08-12T02:17:02;6.72;;;2.08;;
64738;SDS011;51175;51.186;0.276;2023-08-12T02:17:36;5.15;;;3.03;;
64738;SDS011;51175;51.186;0.276;2023-08-12T02:18:06;6.20;;;1.85;;
64738;SDS011;51175;51.186;0.276;2023-08-12T02:18:37;6.47;;;2.00;;
64738;SDS011;51175;51.186;0.276;2023-08-12T02:19:07;5.13;;;1.90;;
64738;SDS011;51175;51.186;0.276;2023-08-12T02:19:37;4.15;;;1.70;;
64738;SDS011;51175;51.186;0.276;2023-08-12T02:20:08;5.80;;;1.90;;
64738;SDS011;51175;51.186;0.276;2023-08-12T02:20:40;4.28;;;1.80;;
64738;SDS011;51175;51.186;0.276;2023-08-12T02:21:11;2.60;;;1.48;;
64738;SDS011;51175;51.186;0.276;2023-08-12T02:21:41;4.90;;;2.05;;
64738;SDS011;51175;51.186;0.276;2023-08-12T02:22:12;3.35;;;1.73;;
64738;SDS011;51175;51.186;0.276;2023-08-12T02:22:42;4.38;;;1.98;;
64738;SDS011;51175;51.186;0.276;2023-08-12T02:23:13;5.93;;;2.80;;
64738;SDS011;51175;51.186;0.276;2023-08-12T02:23:43;3.35;;;2.08;;
64738;SDS011;51175;51.186;0.276;2023-08-12T02:24:14;6.18;;;1.88;;
64738;SDS011;51175;51.186;0.276;2023-08-12T02:24:44;3.70;;;1.88;;
64738;SDS011;51175;51.186;0.276;2023-08-12T02:25:14;3.95;;;1.80;;
64738;SDS011;51175;51.186;0.276;2023-08-12T02:25:45;7.63;;;2.50;;
64738;SDS011;51175;51.186;0.276;2023-08-12T02:26:16;4.53;;;2.13;;
64738;SDS011;51175;51.186;0.276;2023-08-12T02:26:47;4.63;;;1.65;;
64738;SDS011;51175;51.186;0.276;2023-08-12T02:27:17;3.08;;;1.75;;
64738;SDS011;51175;51.186;0.276;2023-08-12T02:27:48;3.75;;;2.00;;
64738;SDS011;51175;51.186;0.276;2023-08-12T02:28:18;5.28;;;2.33;;
64738;SDS011;51175;51.186;0.276;2023-08-12T02:28:48;4.10;;;1.90;;
64738;SDS011;51175;51.186;0.276;2023-08-12T02:29:19;4.40;;;1.70;;
64738;SDS011;51175;51.186;0.276;2023-08-12T02:29:49;3.67;;;1.73;;
64738;SDS011;51175;51.186;0.276;2023-08-12T02:30:19;4.20;;;1.92;;
64738;SDS011;51175;51.186;0.276;2023-08-12T02:30:50;5.32;;;2.55;;
64738;SDS011;51175;51.186;0.276;2023-08-12T02:31:20;5.25;;;1.90;;
64738;SDS011;51175;51.186;0.276;2023-08-12T02:31:50;8.93;;;2.63;;
64738;SDS011;51175;51.186;0.276;2023-08-12T02:32:21;4.93;;;1.98;;
64738;SDS011;51175;51.186;0.276;2023-08-12T02:32:51;4.53;;;2.05;;
64738;SDS011;51175;51.186;0.276;2023-08-12T02:33:22;3.00;;;1.90;;
64738;SDS011;51175;51.186;0.276;2023-08-12T02:33:52;5.75;;;1.90;;
64738;SDS011;51175;51.186;0.276;2023-08-12T02:34:22;3.85;;;1.60;;
64738;SDS011;51175;51.186;0.276;2023-08-12T02:34:53;3.95;;;1.83;;
64738;SDS011;51175;51.186;0.276;2023-08-12T02:35:23;3.78;;;1.67;;
64738;SDS011;51175;51.186;0.276;2023-08-12T02:35:54;5.43;;;2.42;;
64738;SDS011;51175;51.186;0.276;2023-08-12T02:36:24;5.18;;;2.10;;
64738;SDS011;51175;51.186;0.276;2023-08-12T02:36:56;2.63;;;1.58;;
64738;SDS011;51175;51.186;0.276;2023-08-12T02:37:27;5.32;;;1.85;;
64738;SDS011;51175;51.186;0.276;2023-08-12T02:37:57;4.75;;;1.75;;
64738;SDS011;51175;51.186;0.276;2023-08-12T02:38:27;8.07;;;2.17;;
64738;SDS011;51175;51.186;0.276;2023-08-12T02:38:58;5.03;;;1.90;;
64738;SDS011;51175;51.186;0.276;2023-08-12T02:39:28;4.15;;;2.20;;
64738;SDS011;51175;51.186;0.276;2023-08-12T02:39:58;4.07;;;1.60;;
64738;SDS011;51175;51.186;0.276;2023-08-12T02:40:29;3.78;;;2.13;;
64738;SDS011;51175;51.186;0.276;2023-08-12T02:40:59;2.63;;;1.35;;
64738;SDS011;51175;51.186;0.276;2023-08-12T02:41:29;4.18;;;1.80;;
64738;SDS011;51175;51.186;0.276;2023-08-12T02:42:00;5.43;;;1.88;;
64738;SDS011;51175;51.186;0.276;2023-08-12T02:42:30;2.17;;;1.40;;
64738;SDS011;51175;51.186;0.276;2023-08-12T02:43:01;3.42;;;1.63;;
64738;SDS011;51175;51.186;0.276;2023-08-12T02:43:31;3.35;;;1.67;;
64738;SDS011;51175;51.186;0.276;2023-08-12T02:44:01;5.15;;;1.95;;
64738;SDS011;51175;51.186;0.276;2023-08-12T02:44:32;4.15;;;2.05;;
64738;SDS011;51175;51.186;0.276;2023-08-12T02:45:02;4.22;;;1.98;;
64738;SDS011;51175;51.186;0.276;2023-08-12T02:45:33;5.53;;;2.15;;
64738;SDS011;51175;51.186;0.276;2023-08-12T02:46:03;4.35;;;2.60;;
64738;SDS011;51175;51.186;0.276;2023-08-12T02:46:34;2.80;;;1.60;;
64738;SDS011;51175;51.186;0.276;2023-08-12T02:47:04;4.53;;;1.70;;
64738;SDS011;51175;51.186;0.276;2023-08-12T02:47:35;4.05;;;1.83;;
64738;SDS011;51175;51.186;0.276;2023-08-12T02:48:05;5.57;;;1.75;;
64738;SDS011;51175;51.186;0.276;2023-08-12T02:48:36;3.65;;;1.90;;
64738;SDS011;51175;51.186;0.276;2023-08-12T02:49:06;5.05;;;1.95;;
64738;SDS011;51175;51.186;0.276;2023-08-12T02:49:36;3.20;;;1.10;;
64738;SDS011;51175;51.186;0.276;2023-08-12T02:50:07;4.38;;;2.38;;
64738;SDS011;51175;51.186;0.276;2023-08-12T02:50:38;3.53;;;1.75;;
64738;SDS011;51175;51.186;0.276;2023-08-12T02:51:09;4.80;;;1.65;;
64738;SDS011;51175;51.186;0.276;2023-08-12T02:51:40;5.20;;;1.88;;
64738;SDS011;51175;51.186;0.276;2023-08-12T02:52:10;3.85;;;1.73;;
64738;SDS011;51175;51.186;0.276;2023-08-12T02:52:40;4.10;;;1.63;;
64738;SDS011;51175;51.186;0.276;2023-08-12T02:53:11;6.63;;;2.72;;
64738;SDS011;51175;51.186;0.276;2023-08-12T02:53:41;3.35;;;1.98;;
64738;SDS011;51175;51.186;0.276;2023-08-12T02:54:11;4.35;;;1.92;;
64738;SDS011;51175;51.186;0.276;2023-08-12T02:54:42;4.50;;;1.88;;
64738;SDS011;51175;51.186;0.276;2023-08-12T02:55:12;4.25;;;1.73;;
64738;SDS011;51175;51.186;0.276;2023-08-12T02:55:44;4.13;;;2.20;;
64738;SDS011;51175;51.186;0.276;2023-08-12T02:56:15;4.32;;;2.38;;
64738;SDS011;51175;51.186;0.276;2023-08-12T02:56:45;2.60;;;1.33;;
64738;SDS011;51175;51.186;0.276;2023-08-12T02:57:15;4.60;;;1.85;;
64738;SDS011;51175;51.186;0.276;2023-08-12T02:57:46;3.35;;;1.52;;
64738;SDS011;51175;51.186;0.276;2023-08-12T02:58:16;4.30;;;2.03;;
64738;SDS011;51175;51.186;0.276;2023-08-12T02:58:46;3.03;;;1.50;;
64738;SDS011;51175;51.186;0.276;2023-08-12T02:59:17;4.53;;;1.98;;
64738;SDS011;51175;51.186;0.276;2023-08-12T02:59:47;3.22;;;1.10;;
64738;SDS011;51175;51.186;0.276;2023-08-12T03:00:18;5.20;;;1.98;;
64738;SDS011;51175;51.186;0.276;2023-08-12T03:00:48;4.80;;;1.48;;
64738;SDS011;51175;51.186;0.276;2023-08-12T03:01:20;4.30;;;1.60;;
64738;SDS011;51175;51.186;0.276;2023-08-12T03:01:51;5.78;;;2.10;;
64738;SDS011;51175;51.186;0.276;2023-08-12T03:02:22;5.72;;;1.55;;
64738;SDS011;51175;51.186;0.276;2023-08-12T03:02:53;6.78;;;2.08;;
64738;SDS011;51175;51.186;0.276;2023-08-12T03:03:24;6.53;;;2.40;;
64738;SDS011;51175;51.186;0.276;2023-08-12T03:03:54;4.55;;;2.50;;
64738;SDS011;51175;51.186;0.276;2023-08-12T03:04:25;4.43;;;2.40;;
64738;SDS011;51175;51.186;0.276;2023-08-12T03:04:55;3.25;;;1.50;;
64738;SDS011;51175;51.186;0.276;2023-08-12T03:05:25;4.15;;;1.70;;
64738;SDS011;51175;51.186;0.276;2023-08-12T03:05:55;3.75;;;1.40;;
64738;SDS011;51175;51.186;0.276;2023-08-12T03:06:26;3.35;;;1.50;;
64738;SDS011;51175;51.186;0.276;2023-08-12T03:06:56;4.82;;;2.28;;
64738;SDS011;51175;51.186;0.276;2023-08-12T03:07:26;5.65;;;2.50;;
64738;SDS011;51175;51.186;0.276;2023-08-12T03:07:57;4.88;;;2.25;;
64738;SDS011;51175;51.186;0.276;2023-08-12T03:08:31;4.45;;;1.80;;
64738;SDS011;51175;51.186;0.276;2023-08-12T03:09:01;4.75;;;1.70;;
64738;SDS011;51175;51.186;0.276;2023-08-12T03:09:32;2.80;;;1.90;;
64738;SDS011;51175;51.186;0.276;2023-08-12T03:10:02;4.38;;;2.17;;
64738;SDS011;51175;51.186;0.276;2023-08-12T03:10:33;3.85;;;1.50;;
64738;SDS011;51175;51.186;0.276;2023-08-12T03:11:04;4.78;;;1.85;;
64738;SDS011;51175;51.186;0.276;2023-08-12T03:11:34;4.85;;;1.33;;
64738;SDS011;51175;51.186;0.276;2023-08-12T03:12:05;3.13;;;1.50;;